This is the latest recevied weather packets stored in our database for station/object KJ6MC. If no packets are shown the sender has not sent any weather packets the latest 1 day(s).
| Time | Temp. | Humidity | Pressure | Rain* | Wind** | Luminosity | Snow |
|---|---|---|---|---|---|---|---|
| 1778022230 | 18.33° C | 73% | 1014.3 hPa | 0 mm | - | - | - |
| 1778022106 | 18.33° C | 73% | 1014.4 hPa | 0 mm | - | - | - |
| 1778021926 | 18.33° C | 74% | 1014.4 hPa | 0 mm | - | - | - |
| 1778021871 | 18.33° C | 74% | 1014.4 hPa | 0 mm | - | - | - |
| 1778021799 | 18.33° C | 74% | 1014.4 hPa | 0 mm | - | - | - |
| 1778021677 | 18.33° C | 74% | 1014.4 hPa | 0 mm | - | - | - |
| 1778021312 | 18.33° C | 74% | 1014.4 hPa | 0 mm | - | - | - |
| 1778021070 | 18.33° C | 74% | 1014.4 hPa | 0 mm | - | - | - |
| 1778021008 | 18.33° C | 74% | 1014.4 hPa | 0 mm | - | - | - |
| 1778020952 | 18.33° C | 74% | 1014.5 hPa | 0 mm | - | - | - |
| 1778020760 | 18.33° C | 73% | 1014.5 hPa | 0 mm | - | - | - |
| 1778020580 | 18.33° C | 72% | 1014.5 hPa | 0 mm | - | - | - |
| 1778020518 | 18.33° C | 72% | 1014.5 hPa | 0 mm | - | - | - |
| 1778019902 | 19.44° C | 69% | 1014.6 hPa | 0 mm | - | - | - |
| 1778019842 | 19.44° C | 69% | 1014.6 hPa | 0 mm | - | - | - |
| 1778019781 | 19.44° C | 68% | 1014.6 hPa | 0 mm | - | - | - |
| 1778019350 | 20° C | 66% | 1014.7 hPa | 0 mm | - | - | - |
| 1778019290 | 20° C | 66% | 1014.7 hPa | 0 mm | - | - | - |
| 1778019170 | 20° C | 66% | 1014.7 hPa | 0 mm | - | - | - |
| 1778018926 | 20° C | 68% | 1014.7 hPa | 0 mm | - | - | - |
| 1778018872 | 19.44° C | 68% | 1014.7 hPa | 0 mm | - | - | - |
| 1778018620 | 19.44° C | 69% | 1014.7 hPa | 0 mm | - | - | - |
| 1778018564 | 18.89° C | 69% | 1014.7 hPa | 0 mm | - | - | - |
| 1778018314 | 18.89° C | 70% | 1014.8 hPa | 0 mm | - | - | - |
| 1778018070 | 18.33° C | 71% | 1014.8 hPa | 0 mm | - | - | - |
* Rain latest hour (hover to see other rain measurements)
** Current wind speed in m/s (hover to see current wind gust speed)